Pagrindinis puslapis
METAR-TAF:

METAR-TAF

Oro uostai :

Vladivostokas, Rusija

platuma: 43-07N, ilguma: 131-56E, Aukštis: 184 m

Dabartinis oras

Ataskaita buvo paskelbta 36 minutes, ne 23:30 UTC
Vėjas 2 kt nuo kintamojo kryptimis
Temperatūra 4°C
Drėgmė 38%
Slėgis 1016 hPa
Matomumas 10 km arba daugiau

METAR: UHWW 052330Z VRB01MPS 9999 NSC 04/M09 Q1016 R25L/0///70 NOSIG RMK QFE761

Laikas: 10:06 (00:06 UTC)

Prognozė

Ataskaita buvo paskelbta 1 valandą ir 6 minutes, ne 23:00 UTC
Prognozė galioja nuo 06 metu 00 UTC su 06 metu 24 UTC
Vėjas 6 kt iš Šiaurės/Šiaurės Vakarų
Matomumas 10 km arba daugiau
Išsisklaidę debesys ne aukštis 3000 ft
Laikinai
nuo 06 metu 01 UTC su 06 metu 07 UTC
Vėjas 14 kt iš Šiaurės Vakarų su gūsio iki 23 kt
Tapsmas
nuo 06 metu 12 UTC su 06 metu 14 UTC
Vėjas 6 kt iš Pietų/Pietryčių

TAF: UHWW 052300Z 0600/0624 34003MPS 9999 SCT030 TEMPO 0601/0607 32007G12MPS BECMG 0612/0614 16003MPS

Orai ataskaitas ir orų prognozės (METAR, TAF).

turimą stotys yra geltonos ir raudonos taškus žemėlapyje.

Perkelti pele per norėdami pamatyti stoties vardą.

Tada spustelėkite, norėdami matyti oro stebėjimo ir prognozės.

Norėdami pakeisti žemėlapį: spustelėkite ant žalios mygtukų su juodo kryžiaus žemyn,; žalią mygtuką su brūkšneliu, jei norite nutolinti; arba žalių rodyklių gretimoms žemėlapius.


METAR-TAF: